Main page
METAR-TAF:

Airports :

Rovaniemi, Finland

Rovaniemi Airport

latitude: 66-34N, longitude: 025-50E, elevation: 197 m

Current weather observation

The report was made 12 minutes ago, at 18:50 UTC
Wind 6 kt from the East/Northeast
Temperature 17°C
Humidity 55%
Pressure 1017 hPa
Visibility 10 km or more
no clouds below 1500 m and no cumulonimbus

METAR: EFRO 261850Z AUTO 07006KT CAVOK 17/08 Q1017

Time: 22:02 (19:02 UTC)

Forecast

The report was made 1 hour and 31 minutes ago, at 17:31 UTC
Forecast valid from 26 at 18 UTC to 27 at 18 UTC
Wind 4 kt from the East/Northeast
Visibility 10 km or more
no clouds below 1500 m and no cumulonimbus

TAF: EFRO 261731Z 2618/2718 06004KT CAVOK

METAR-TAF

Weather observations and forecasts of more than 4000 airports (METAR and TAF reports).

The available stations are represented by yellow and red dots on the map.

Hover mouse over dot to see the name of the station.

Then click to see weather observations and forecasts.

To change the map : click on the green buttons with a black cross to zoom in, on the green button with a dash to zoom out, or on the green arrows for adjacent maps.


METAR-TAF: